createdAt,value
2024-03-06T00:02:21.105Z,78.84
2024-03-06T00:04:48.776Z,79.16
2024-03-06T00:07:16.689Z,80.05
2024-03-06T00:09:43.996Z,80.90
2024-03-06T00:12:17.698Z,80.79
2024-03-06T00:14:45.279Z,81.93
2024-03-06T00:17:17.700Z,82.58
2024-03-06T00:19:45.332Z,82.50
2024-03-06T00:22:18.532Z,83.13
2024-03-06T00:24:54.459Z,82.29
2024-03-06T00:27:23.559Z,81.66
2024-03-06T00:29:51.000Z,81.89
2024-03-06T00:32:22.898Z,80.99
2024-03-06T00:34:50.460Z,80.82
2024-03-06T00:37:18.262Z,80.93
2024-03-06T00:39:45.438Z,80.24
2024-03-06T00:42:15.525Z,81.43
2024-03-06T00:44:53.857Z,81.39
2024-03-06T00:47:27.823Z,81.52
2024-03-06T00:49:58.046Z,81.69
2024-03-06T00:52:25.679Z,81.20
2024-03-06T00:54:56.159Z,80.84
2024-03-06T00:57:28.404Z,80.36
2024-03-06T01:00:01.015Z,80.57
2024-03-06T01:02:30.715Z,80.57
2024-03-06T01:04:58.154Z,81.07
2024-03-06T01:07:25.862Z,81.45
2024-03-06T01:09:53.415Z,81.59
2024-03-06T01:12:21.195Z,81.65
2024-03-06T01:14:50.939Z,81.79
2024-03-06T01:17:20.401Z,81.87
2024-03-06T01:19:49.952Z,81.77
2024-03-06T01:22:24.539Z,81.56
2024-03-06T01:24:51.954Z,80.73
2024-03-06T01:27:19.715Z,81.00
2024-03-06T01:29:47.118Z,80.45
2024-03-06T01:32:14.952Z,79.95
2024-03-06T01:34:46.870Z,80.25
2024-03-06T01:37:18.997Z,80.32
2024-03-06T01:39:48.349Z,80.00
2024-03-06T01:42:20.995Z,80.96
2024-03-06T01:44:48.298Z,81.16
2024-03-06T01:47:16.261Z,81.68
2024-03-06T01:49:45.844Z,82.28
2024-03-06T01:52:17.310Z,83.05
2024-03-06T01:54:46.114Z,83.36
2024-03-06T01:57:20.253Z,82.90
2024-03-06T01:59:48.621Z,82.80
2024-03-06T02:02:16.580Z,82.34
2024-03-06T02:04:45.279Z,83.25
2024-03-06T02:07:21.839Z,83.10
2024-03-06T02:09:49.374Z,83.03
2024-03-06T02:12:21.973Z,82.95
2024-03-06T02:14:49.494Z,83.08
2024-03-06T02:17:17.178Z,83.98
2024-03-06T02:19:51.091Z,83.72
2024-03-06T02:22:20.278Z,83.97
2024-03-06T02:24:52.398Z,83.68
2024-03-06T02:27:20.034Z,83.75
2024-03-06T02:29:47.578Z,83.71
2024-03-06T02:32:15.643Z,83.73
2024-03-06T02:34:43.356Z,83.47
2024-03-06T02:37:15.987Z,83.63
2024-03-06T02:39:44.831Z,82.97
2024-03-06T02:42:17.093Z,82.64
2024-03-06T02:44:50.421Z,82.66
2024-03-06T02:47:18.242Z,82.70
2024-03-06T02:49:45.643Z,82.86
2024-03-06T02:52:17.947Z,82.87
2024-03-06T02:54:50.980Z,82.90
2024-03-06T02:57:21.573Z,82.59
2024-03-06T02:59:49.009Z,83.09
2024-03-06T03:02:16.780Z,83.91
2024-03-06T03:04:48.423Z,83.64
2024-03-06T03:07:21.141Z,84.03
2024-03-06T03:09:55.986Z,83.42
2024-03-06T03:12:26.157Z,83.31
2024-03-06T03:14:55.329Z,83.05
2024-03-06T03:17:23.183Z,82.64
2024-03-06T03:19:50.606Z,82.84
2024-03-06T03:22:24.681Z,82.27
2024-03-06T03:24:56.961Z,82.33
2024-03-06T03:27:24.677Z,80.87
2024-03-06T03:29:55.064Z,80.73
2024-03-06T03:32:26.952Z,80.73
2024-03-06T03:34:54.917Z,80.16
2024-03-06T03:37:31.471Z,79.29
2024-03-06T03:40:06.447Z,80.47
2024-03-06T03:42:39.012Z,81.90
2024-03-06T03:45:07.000Z,83.81
2024-03-06T03:47:38.885Z,84.66
2024-03-06T03:50:10.848Z,85.50
2024-03-06T03:52:42.169Z,86.98
2024-03-06T03:55:11.261Z,86.87
2024-03-06T03:57:38.997Z,87.42
2024-03-06T04:00:07.745Z,86.75
2024-03-06T04:02:35.579Z,85.95
2024-03-06T04:05:05.858Z,85.25
2024-03-06T04:07:38.400Z,84.71
2024-03-06T04:10:07.135Z,84.77
2024-03-06T04:12:40.067Z,85.33
2024-03-06T04:15:10.701Z,85.95
2024-03-06T04:17:38.609Z,85.89
2024-03-06T04:20:06.690Z,86.52
2024-03-06T04:22:34.552Z,86.79
2024-03-06T04:25:06.454Z,86.92
2024-03-06T04:27:39.459Z,87.03
2024-03-06T04:30:08.113Z,86.90
2024-03-06T04:32:35.997Z,86.18
2024-03-06T04:35:03.460Z,86.81
2024-03-06T04:37:31.310Z,87.11
2024-03-06T04:40:02.061Z,85.94
2024-03-06T04:42:29.946Z,85.54
2024-03-06T04:44:58.741Z,84.81
2024-03-06T04:47:30.079Z,84.36
2024-03-06T04:49:57.984Z,84.45
2024-03-06T04:52:27.251Z,84.88
2024-03-06T04:54:59.458Z,84.31
2024-03-06T04:57:27.200Z,84.41
2024-03-06T04:59:56.053Z,83.85
2024-03-06T05:02:25.780Z,83.72
2024-03-06T06:00:34.106Z,86.92
2024-03-06T06:03:11.400Z,87.28
2024-03-06T06:05:39.065Z,87.17
2024-03-06T06:08:12.424Z,87.20
2024-03-06T06:10:44.450Z,86.83
2024-03-06T06:13:12.244Z,86.40
2024-03-06T06:15:40.161Z,85.98
2024-03-06T06:18:08.095Z,86.59
2024-03-06T06:20:35.826Z,85.81
2024-03-06T06:23:16.112Z,85.76
2024-03-06T06:25:43.684Z,86.07
2024-03-06T06:28:11.409Z,85.73
2024-03-06T06:30:38.762Z,84.85
2024-03-06T06:33:11.071Z,84.64
2024-03-06T06:35:38.798Z,84.80
2024-03-06T06:38:12.896Z,84.60
2024-03-06T06:40:40.363Z,84.03
2024-03-06T06:43:08.343Z,83.57
2024-03-06T06:45:37.984Z,83.50
2024-03-06T06:48:06.380Z,82.95
2024-03-06T06:50:33.843Z,82.79
2024-03-06T06:53:06.043Z,83.19
2024-03-06T06:55:38.993Z,82.50
2024-03-06T06:58:06.848Z,83.03
2024-03-06T07:00:35.052Z,82.99
2024-03-06T07:03:02.812Z,82.73
2024-03-06T07:05:30.337Z,82.18
2024-03-06T07:07:58.202Z,81.84
2024-03-06T07:10:25.631Z,80.79
2024-03-06T07:12:54.790Z,81.48
2024-03-06T07:15:22.172Z,80.65
2024-03-06T07:17:50.293Z,80.00
2024-03-06T07:20:18.144Z,79.15
2024-03-06T07:22:46.325Z,80.50
2024-03-06T07:25:16.479Z,81.21
2024-03-06T07:27:44.568Z,80.51
2024-03-06T07:30:15.120Z,79.75
2024-03-06T07:32:48.339Z,79.75
2024-03-06T07:35:16.138Z,79.83
2024-03-06T07:37:44.072Z,80.69
2024-03-06T07:40:12.016Z,79.27
2024-03-06T07:42:39.860Z,76.93
2024-03-06T07:45:07.906Z,77.42
2024-03-06T07:47:38.830Z,77.36
2024-03-06T07:50:12.532Z,76.27
2024-03-06T07:52:40.482Z,75.97
2024-03-06T07:55:10.484Z,76.57
2024-03-06T07:57:38.207Z,74.74
2024-03-06T08:00:06.951Z,77.00
2024-03-06T08:02:36.646Z,72.96
2024-03-06T08:05:10.350Z,75.45
2024-03-06T08:07:38.563Z,72.92
2024-03-06T08:10:06.694Z,72.29
2024-03-06T08:12:34.296Z,73.01
2024-03-06T08:15:02.380Z,72.69
2024-03-06T08:17:30.226Z,71.97
2024-03-06T08:20:00.734Z,71.08
2024-03-06T08:22:34.247Z,69.40
2024-03-06T08:25:07.499Z,69.89
2024-03-06T08:27:35.756Z,72.05
2024-03-06T08:30:03.419Z,69.54
2024-03-06T08:32:35.579Z,68.20
2024-03-06T08:35:03.706Z,67.03
2024-03-06T08:37:32.591Z,66.89
2024-03-06T08:40:00.663Z,68.39
2024-03-06T08:42:30.953Z,68.35
2024-03-06T08:44:58.582Z,69.50
2024-03-06T08:47:26.253Z,65.53
2024-03-06T08:49:54.203Z,64.52
2024-03-06T08:52:21.635Z,64.38
2024-03-06T08:54:54.184Z,63.76
2024-03-06T08:57:24.856Z,62.89
2024-03-06T08:59:53.393Z,65.01
2024-03-06T09:02:25.013Z,61.51
2024-03-06T09:04:53.492Z,61.56
2024-03-06T09:07:21.358Z,63.60
2024-03-06T09:09:50.554Z,62.49
2024-03-06T09:12:23.443Z,59.99
2024-03-06T09:14:55.495Z,60.47
2024-03-06T09:17:25.098Z,54.20
2024-03-06T09:20:00.444Z,57.38
2024-03-06T09:22:36.461Z,57.43
2024-03-06T09:25:08.913Z,56.16
2024-03-06T09:27:36.937Z,56.35
2024-03-06T09:30:05.122Z,57.93
2024-03-06T09:32:35.084Z,56.86
2024-03-06T09:35:02.879Z,57.25
2024-03-06T09:37:30.417Z,56.86
2024-03-06T09:39:58.214Z,55.91
2024-03-06T09:42:27.555Z,56.48
2024-03-06T09:44:55.125Z,55.16
2024-03-06T09:47:26.765Z,55.00
2024-03-06T09:50:00.557Z,55.40
2024-03-06T09:52:28.037Z,50.05
2024-03-06T09:54:57.363Z,50.32
2024-03-06T09:57:25.350Z,50.64
2024-03-06T10:00:02.459Z,52.39
2024-03-06T10:02:37.931Z,50.34
2024-03-06T10:05:06.329Z,52.18
2024-03-06T10:07:34.782Z,52.21
2024-03-06T10:10:06.192Z,52.40
2024-03-06T10:12:33.814Z,51.41
2024-03-06T10:15:12.496Z,50.16
2024-03-06T10:17:47.231Z,52.41
2024-03-06T10:20:24.197Z,54.56
2024-03-06T10:22:56.235Z,50.57
2024-03-06T10:25:27.548Z,51.10
2024-03-06T10:28:12.476Z,49.92
2024-03-06T10:30:46.271Z,49.83
2024-03-06T10:33:15.192Z,49.80
2024-03-06T10:35:44.348Z,48.61
2024-03-06T10:38:12.751Z,48.07
2024-03-06T10:40:41.236Z,46.22
2024-03-06T10:43:10.147Z,47.75
2024-03-06T10:45:47.805Z,46.13
2024-03-06T10:48:16.432Z,49.46
2024-03-06T10:50:47.780Z,48.11
2024-03-06T10:53:21.015Z,48.97
2024-03-06T10:55:51.531Z,53.32
2024-03-06T10:58:21.295Z,54.70
2024-03-06T11:00:55.237Z,52.52
2024-03-06T11:03:23.193Z,52.56
2024-03-06T11:05:50.560Z,51.64
2024-03-06T11:08:20.500Z,53.71
2024-03-06T11:10:48.408Z,52.68
2024-03-06T11:13:25.309Z,53.69
2024-03-06T11:15:59.592Z,53.04
2024-03-06T11:18:42.995Z,53.16
2024-03-06T11:21:29.602Z,53.18
2024-03-06T11:24:24.423Z,52.75
2024-03-06T11:26:57.105Z,51.36
2024-03-06T11:29:24.179Z,52.80
2024-03-06T11:32:13.784Z,51.27
2024-03-06T11:34:44.480Z,52.49
2024-03-06T11:37:12.160Z,54.13
2024-03-06T11:39:43.012Z,55.28
2024-03-06T11:42:12.404Z,56.16
2024-03-06T11:44:58.847Z,54.08
2024-03-06T11:47:36.549Z,54.00
2024-03-06T11:50:04.553Z,55.08
2024-03-06T11:52:32.358Z,56.15
2024-03-06T11:54:59.889Z,55.72
2024-03-06T11:57:28.552Z,55.71
2024-03-06T11:59:56.413Z,57.34
2024-03-06T12:02:23.955Z,59.30
2024-03-06T12:04:58.127Z,60.04
2024-03-06T12:07:28.770Z,59.13
2024-03-06T12:09:58.449Z,58.12
2024-03-06T12:12:25.847Z,60.90
2024-03-06T12:15:04.487Z,57.31
2024-03-06T12:17:32.045Z,56.14
2024-03-06T12:20:01.828Z,55.87
2024-03-06T12:22:29.480Z,56.69
2024-03-06T12:25:00.867Z,57.40
2024-03-06T12:27:28.641Z,60.11
2024-03-06T12:29:56.875Z,60.01
2024-03-06T12:32:24.577Z,59.78
2024-03-06T12:35:00.371Z,61.15
2024-03-06T12:37:36.463Z,63.58
2024-03-06T12:40:09.465Z,65.52
2024-03-06T12:42:37.000Z,60.31
2024-03-06T12:45:05.824Z,62.23
2024-03-06T12:47:33.281Z,61.18
2024-03-06T12:50:00.929Z,61.65
2024-03-06T12:52:33.400Z,63.27
2024-03-06T12:55:00.900Z,62.54
2024-03-06T12:57:33.997Z,60.41
2024-03-06T13:00:04.656Z,58.41
2024-03-06T13:02:32.052Z,58.67
2024-03-06T13:04:59.514Z,58.33
2024-03-06T13:07:27.222Z,57.73
2024-03-06T13:10:05.973Z,58.49
2024-03-06T13:12:34.147Z,57.15
2024-03-06T13:15:01.583Z,59.54
2024-03-06T13:17:31.715Z,59.44
2024-03-06T13:19:59.493Z,57.92
2024-03-06T13:22:26.864Z,59.94
2024-03-06T13:24:54.334Z,59.41
2024-03-06T13:27:29.118Z,60.38
2024-03-06T13:29:59.611Z,59.78
2024-03-06T13:32:31.517Z,60.94
2024-03-06T13:34:58.983Z,59.28
2024-03-06T13:37:26.310Z,60.13
2024-03-06T13:39:54.151Z,60.41
2024-03-06T13:42:21.736Z,59.15
2024-03-06T13:44:54.049Z,60.08
2024-03-06T13:47:21.877Z,60.72
2024-03-06T13:49:52.189Z,59.17
2024-03-06T13:52:24.434Z,58.83
2024-03-06T13:54:53.210Z,59.86
2024-03-06T13:57:20.567Z,60.45
2024-03-06T14:00:02.476Z,60.45
2024-03-06T14:02:30.323Z,60.23
2024-03-06T14:05:02.538Z,60.63
2024-03-06T14:07:33.255Z,61.82
2024-03-06T14:10:04.214Z,60.74
2024-03-06T14:12:36.933Z,61.06
2024-03-06T14:15:11.043Z,61.80
2024-03-06T14:17:38.444Z,62.42
2024-03-06T14:20:07.133Z,61.79
2024-03-06T14:22:34.683Z,62.23
2024-03-06T14:25:02.107Z,62.18
2024-03-06T14:27:29.823Z,62.61
2024-03-06T14:29:59.195Z,62.60
2024-03-06T14:32:32.200Z,63.34
2024-03-06T14:35:00.241Z,63.77
2024-03-06T14:37:27.547Z,64.21
2024-03-06T14:39:57.672Z,63.73
2024-03-06T14:42:25.567Z,64.15
2024-03-06T14:44:52.981Z,65.45
2024-03-06T14:47:24.613Z,65.56
2024-03-06T14:50:01.498Z,65.24
2024-03-06T14:52:29.137Z,64.89
2024-03-06T14:55:00.318Z,65.49
2024-03-06T14:57:32.517Z,65.63
2024-03-06T15:00:00.684Z,66.18
2024-03-06T15:02:34.678Z,65.25
2024-03-06T15:05:08.434Z,65.74
2024-03-06T15:07:35.994Z,65.44
2024-03-06T15:10:04.363Z,65.69
2024-03-06T15:12:36.477Z,66.81
2024-03-06T15:15:10.517Z,67.55
2024-03-06T15:17:42.512Z,67.42
2024-03-06T15:20:16.071Z,68.59
2024-03-06T15:22:50.482Z,70.20
2024-03-06T15:25:23.237Z,71.93
2024-03-06T15:27:55.475Z,72.33
2024-03-06T15:30:30.478Z,72.17
2024-03-06T15:32:58.274Z,71.57
2024-03-06T15:35:27.425Z,72.21
2024-03-06T15:37:54.908Z,72.40
2024-03-06T15:40:22.740Z,73.29
2024-03-06T15:42:54.258Z,76.72
2024-03-06T15:45:23.140Z,77.72
2024-03-06T15:47:51.169Z,79.16
2024-03-06T15:50:18.829Z,78.97
2024-03-06T15:52:52.049Z,79.95
2024-03-06T15:55:24.546Z,79.89
2024-03-06T15:57:51.981Z,79.17
2024-03-06T16:00:25.468Z,78.94
2024-03-06T16:02:53.859Z,79.52
2024-03-06T16:05:27.606Z,79.91
2024-03-06T16:08:05.272Z,79.91
2024-03-06T16:10:41.483Z,80.08
2024-03-06T16:13:12.295Z,81.05
2024-03-06T16:15:39.801Z,81.16
2024-03-06T16:18:11.958Z,82.00
2024-03-06T16:20:45.287Z,82.52
2024-03-06T16:23:19.640Z,82.60
2024-03-06T16:25:54.793Z,82.53
2024-03-06T16:28:31.732Z,81.61
2024-03-06T16:31:00.197Z,82.26
2024-03-06T16:33:27.819Z,82.18
2024-03-06T16:35:56.439Z,82.84
2024-03-06T16:38:26.891Z,83.10
2024-03-06T16:40:54.781Z,82.44
2024-03-06T16:43:23.004Z,82.07
2024-03-06T16:45:51.371Z,81.60
2024-03-06T16:48:19.048Z,81.45
2024-03-06T16:50:46.936Z,81.22
2024-03-06T16:53:14.613Z,80.33
2024-03-06T16:55:48.572Z,80.46
2024-03-06T16:58:24.377Z,80.21
2024-03-06T17:00:56.811Z,80.97
2024-03-06T17:03:24.970Z,81.28
2024-03-06T17:05:57.651Z,81.23
2024-03-06T17:08:29.495Z,81.87
2024-03-06T17:11:03.120Z,82.31
2024-03-06T17:13:35.818Z,82.78
2024-03-06T17:16:07.183Z,83.10
2024-03-06T17:18:35.420Z,84.08
2024-03-06T17:21:06.263Z,84.61
2024-03-06T17:23:33.787Z,84.70
2024-03-06T17:26:03.601Z,84.93
2024-03-06T17:28:31.540Z,85.24
2024-03-06T17:30:59.462Z,85.74
2024-03-06T17:33:27.261Z,86.41
2024-03-06T17:36:00.036Z,87.26
2024-03-06T17:38:33.551Z,87.44
2024-03-06T17:41:11.489Z,87.62
2024-03-06T17:43:39.209Z,87.86
2024-03-06T17:46:09.820Z,88.88
2024-03-06T17:48:40.283Z,90.05
2024-03-06T17:51:08.550Z,90.19
2024-03-06T17:53:38.797Z,89.99
2024-03-06T17:56:17.108Z,89.76
2024-03-06T17:58:46.842Z,89.99
2024-03-06T18:01:15.086Z,90.38
2024-03-06T18:03:46.417Z,89.86
2024-03-06T18:06:19.062Z,89.59
2024-03-06T18:08:49.106Z,90.36
2024-03-06T18:11:24.254Z,90.14
2024-03-06T18:13:52.263Z,90.47
2024-03-06T18:16:20.620Z,90.25
2024-03-06T18:18:51.174Z,90.75
2024-03-06T18:21:32.980Z,90.49
2024-03-06T18:24:05.720Z,90.95
2024-03-06T18:26:35.491Z,90.56
2024-03-06T18:29:22.515Z,90.21
2024-03-06T18:31:57.136Z,89.79
2024-03-06T18:34:37.318Z,89.32
2024-03-06T18:37:09.593Z,90.25
2024-03-06T18:39:38.116Z,90.84
2024-03-06T18:42:20.602Z,91.27
2024-03-06T18:44:51.450Z,91.00
2024-03-06T18:47:25.564Z,90.92
2024-03-06T18:49:59.593Z,91.07
2024-03-06T18:52:49.900Z,91.92
2024-03-06T18:55:18.241Z,92.19
2024-03-06T18:57:55.830Z,92.50
2024-03-06T19:00:24.288Z,91.75
2024-03-06T19:02:58.566Z,92.45
2024-03-06T19:05:26.857Z,92.55
2024-03-06T19:08:33.015Z,92.04
2024-03-06T19:10:56.651Z,92.49
2024-03-06T19:13:57.412Z,92.51
2024-03-06T19:16:43.145Z,92.55
2024-03-06T19:19:31.354Z,92.72
2024-03-06T19:22:02.315Z,92.52
2024-03-06T19:24:37.632Z,93.47
2024-03-06T19:27:11.554Z,93.38
2024-03-06T19:29:50.314Z,92.44
2024-03-06T19:32:34.086Z,92.33
2024-03-06T19:35:09.433Z,91.99
2024-03-06T19:37:48.202Z,92.56
2024-03-06T19:40:33.013Z,92.84
2024-03-06T19:43:04.717Z,92.15
2024-03-06T19:45:50.523Z,92.40
2024-03-06T19:48:19.767Z,92.22
2024-03-06T19:51:02.002Z,92.46
2024-03-06T19:53:29.859Z,92.54
2024-03-06T19:56:04.682Z,92.34
2024-03-06T19:58:47.696Z,92.55
2024-03-06T20:01:28.332Z,93.78
2024-03-06T20:04:00.538Z,93.56
2024-03-06T20:06:33.558Z,93.42
2024-03-06T20:09:01.706Z,93.05
2024-03-06T20:11:41.086Z,92.95
2024-03-06T20:14:11.766Z,92.20
2024-03-06T20:16:41.568Z,92.18
2024-03-06T20:19:16.553Z,92.01
2024-03-06T20:21:45.319Z,92.21
2024-03-06T20:25:17.435Z,92.09
2024-03-06T20:27:41.277Z,91.69
2024-03-06T20:30:09.422Z,92.74
2024-03-06T20:32:39.933Z,92.57
2024-03-06T20:35:08.594Z,92.01
2024-03-06T20:37:41.262Z,91.71
2024-03-06T20:40:14.635Z,91.62
2024-03-06T20:42:43.744Z,90.40
2024-03-06T20:45:12.196Z,90.93
2024-03-06T20:47:46.741Z,91.09
2024-03-06T20:50:18.579Z,90.72
2024-03-06T20:52:53.889Z,90.22
2024-03-06T20:55:22.224Z,90.51
2024-03-06T20:57:50.255Z,90.82
2024-03-06T21:00:20.512Z,90.34
2024-03-06T21:02:58.107Z,90.08
2024-03-06T21:05:25.429Z,90.65
2024-03-06T21:07:53.457Z,90.80
2024-03-06T21:10:20.969Z,90.44
2024-03-06T21:12:49.528Z,90.14
2024-03-06T21:15:17.481Z,89.91
2024-03-06T21:17:45.463Z,89.79
2024-03-06T21:20:18.196Z,90.09
2024-03-06T21:22:46.706Z,89.74
2024-03-06T21:25:14.818Z,90.05
2024-03-06T21:27:46.886Z,89.84
2024-03-06T21:30:14.622Z,90.41
2024-03-06T21:32:45.390Z,91.00
2024-03-06T21:35:14.565Z,91.02
2024-03-06T21:37:42.855Z,89.81
2024-03-06T21:40:11.132Z,89.56
2024-03-06T21:42:39.077Z,89.45
2024-03-06T21:45:07.336Z,90.07
2024-03-06T21:47:35.148Z,89.72
2024-03-06T21:50:07.585Z,89.74
2024-03-06T21:52:36.633Z,90.20
2024-03-06T21:55:09.462Z,90.28
2024-03-06T21:57:36.846Z,90.44
2024-03-06T22:00:05.957Z,90.19
2024-03-06T22:02:40.516Z,89.68
2024-03-06T22:05:12.501Z,89.71
2024-03-06T22:07:41.316Z,89.11
2024-03-06T22:10:14.141Z,88.80
2024-03-06T22:12:44.428Z,88.50
2024-03-06T22:15:17.657Z,88.36
2024-03-06T22:17:46.981Z,87.86
2024-03-06T22:20:21.382Z,88.38
2024-03-06T22:22:51.066Z,89.40
2024-03-06T22:25:19.207Z,89.32
2024-03-06T22:27:46.565Z,89.00
2024-03-06T22:30:24.447Z,89.08
2024-03-06T22:32:52.338Z,88.89
2024-03-06T22:35:20.216Z,89.13
2024-03-06T22:37:47.799Z,89.34
2024-03-06T22:40:20.913Z,88.45
2024-03-06T22:42:48.247Z,88.26
2024-03-06T22:45:15.924Z,89.20
2024-03-06T22:47:43.393Z,88.54
2024-03-06T22:50:15.950Z,89.16
2024-03-06T22:52:43.616Z,88.99
2024-03-06T22:55:11.349Z,89.55
2024-03-06T22:57:44.373Z,89.58
2024-03-06T23:00:18.047Z,89.80
2024-03-06T23:02:45.805Z,89.90
2024-03-06T23:05:25.620Z,89.36
2024-03-06T23:07:53.685Z,89.64
2024-03-06T23:10:21.881Z,89.61
2024-03-06T23:12:52.225Z,88.27
2024-03-06T23:15:25.117Z,88.45
2024-03-06T23:17:55.016Z,88.89
2024-03-06T23:20:23.082Z,88.54
2024-03-06T23:22:50.454Z,87.42
2024-03-06T23:25:18.622Z,88.45
2024-03-06T23:27:46.737Z,88.36
2024-03-06T23:30:17.442Z,88.35
2024-03-06T23:32:49.615Z,87.63
2024-03-06T23:35:17.566Z,88.11
2024-03-06T23:37:45.288Z,87.85
2024-03-06T23:40:16.709Z,88.38
2024-03-06T23:42:45.093Z,88.54
2024-03-06T23:45:14.375Z,88.40
2024-03-06T23:47:44.472Z,88.62
2024-03-06T23:50:13.309Z,87.84
2024-03-06T23:52:42.503Z,87.67
2024-03-06T23:55:11.148Z,87.33
2024-03-06T23:57:43.471Z,87.03
